sensor_id;sensor_type;location;lat;lon;timestamp;pressure;altitude;pressure_sealevel;temperature;humidity
49843;BME280;55559;48.898;9.184;2023-04-01T00:01:58;97041.97;;;8.51;100.00
49843;BME280;55559;48.898;9.184;2023-04-01T00:04:25;97047.91;;;8.53;100.00
49843;BME280;55559;48.898;9.184;2023-04-01T00:06:53;97041.13;;;8.50;100.00
49843;BME280;55559;48.898;9.184;2023-04-01T00:09:20;97047.72;;;8.46;100.00
49843;BME280;55559;48.898;9.184;2023-04-01T00:11:49;97057.50;;;8.46;100.00
49843;BME280;55559;48.898;9.184;2023-04-01T00:14:17;97046.44;;;8.50;100.00
49843;BME280;55559;48.898;9.184;2023-04-01T00:16:44;97048.06;;;8.51;100.00
49843;BME280;55559;48.898;9.184;2023-04-01T00:19:12;97044.28;;;8.54;100.00
49843;BME280;55559;48.898;9.184;2023-04-01T00:21:39;97043.97;;;8.57;100.00
49843;BME280;55559;48.898;9.184;2023-04-01T00:24:07;97050.25;;;8.56;100.00
49843;BME280;55559;48.898;9.184;2023-04-01T00:26:34;97049.63;;;8.62;100.00
49843;BME280;55559;48.898;9.184;2023-04-01T00:29:03;97048.31;;;8.66;100.00
49843;BME280;55559;48.898;9.184;2023-04-01T00:31:31;97041.53;;;8.64;100.00
49843;BME280;55559;48.898;9.184;2023-04-01T00:33:58;97059.06;;;8.65;100.00
49843;BME280;55559;48.898;9.184;2023-04-01T00:36:26;97054.47;;;8.67;100.00
49843;BME280;55559;48.898;9.184;2023-04-01T00:38:53;97047.19;;;8.69;100.00
49843;BME280;55559;48.898;9.184;2023-04-01T00:41:21;97048.00;;;8.69;100.00
49843;BME280;55559;48.898;9.184;2023-04-01T00:43:50;97042.84;;;8.68;100.00
49843;BME280;55559;48.898;9.184;2023-04-01T00:46:20;97058.75;;;8.68;100.00
49843;BME280;55559;48.898;9.184;2023-04-01T00:48:51;97066.56;;;8.69;100.00
49843;BME280;55559;48.898;9.184;2023-04-01T00:51:24;97060.44;;;8.69;100.00
49843;BME280;55559;48.898;9.184;2023-04-01T00:53:54;97055.31;;;8.75;100.00
49843;BME280;55559;48.898;9.184;2023-04-01T00:56:24;97054.81;;;8.80;100.00
49843;BME280;55559;48.898;9.184;2023-04-01T00:58:57;97048.22;;;8.84;100.00
49843;BME280;55559;48.898;9.184;2023-04-01T01:01:28;97045.91;;;8.89;100.00
49843;BME280;55559;48.898;9.184;2023-04-01T01:03:57;97052.22;;;8.97;100.00
49843;BME280;55559;48.898;9.184;2023-04-01T01:06:35;97048.09;;;8.94;100.00
49843;BME280;55559;48.898;9.184;2023-04-01T01:09:20;97049.75;;;8.95;100.00
49843;BME280;55559;48.898;9.184;2023-04-01T01:12:00;97050.41;;;8.97;100.00
49843;BME280;55559;48.898;9.184;2023-04-01T01:14:39;97047.59;;;8.99;100.00
49843;BME280;55559;48.898;9.184;2023-04-01T01:17:19;97049.09;;;9.01;100.00
49843;BME280;55559;48.898;9.184;2023-04-01T01:23:36;97044.13;;;8.98;100.00
49843;BME280;55559;48.898;9.184;2023-04-01T01:26:18;97051.91;;;9.00;100.00
49843;BME280;55559;48.898;9.184;2023-04-01T01:28:59;97048.44;;;8.99;100.00
49843;BME280;55559;48.898;9.184;2023-04-01T01:31:37;97044.13;;;8.98;100.00
49843;BME280;55559;48.898;9.184;2023-04-01T01:34:15;97044.94;;;8.99;100.00
49843;BME280;55559;48.898;9.184;2023-04-01T01:36:52;97048.59;;;8.98;100.00
49843;BME280;55559;48.898;9.184;2023-04-01T01:39:26;97047.28;;;9.02;100.00
49843;BME280;55559;48.898;9.184;2023-04-01T01:41:56;97046.28;;;9.03;100.00
49843;BME280;55559;48.898;9.184;2023-04-01T01:44:26;97043.47;;;9.04;100.00
49843;BME280;55559;48.898;9.184;2023-04-01T01:46:56;97050.59;;;9.04;100.00
49843;BME280;55559;48.898;9.184;2023-04-01T01:49:25;97045.63;;;9.01;100.00
49843;BME280;55559;48.898;9.184;2023-04-01T01:51:57;97051.59;;;9.03;100.00
49843;BME280;55559;48.898;9.184;2023-04-01T01:54:25;97048.94;;;9.03;100.00
49843;BME280;55559;48.898;9.184;2023-04-01T01:56:59;97056.94;;;9.11;100.00
49843;BME280;55559;48.898;9.184;2023-04-01T01:59:33;97054.59;;;9.08;100.00
49843;BME280;55559;48.898;9.184;2023-04-01T02:02:04;97052.41;;;9.03;100.00
49843;BME280;55559;48.898;9.184;2023-04-01T02:04:34;97052.56;;;9.02;100.00
49843;BME280;55559;48.898;9.184;2023-04-01T02:07:09;97061.19;;;8.96;100.00
49843;BME280;55559;48.898;9.184;2023-04-01T02:09:39;97044.59;;;8.93;100.00
49843;BME280;55559;48.898;9.184;2023-04-01T02:12:08;97047.91;;;8.87;100.00
49843;BME280;55559;48.898;9.184;2023-04-01T02:14:44;97038.94;;;8.88;100.00
49843;BME280;55559;48.898;9.184;2023-04-01T02:17:14;97058.16;;;8.82;100.00
49843;BME280;55559;48.898;9.184;2023-04-01T02:19:47;97056.03;;;8.86;100.00
49843;BME280;55559;48.898;9.184;2023-04-01T02:22:20;97052.72;;;8.84;100.00
49843;BME280;55559;48.898;9.184;2023-04-01T02:24:50;97044.41;;;8.79;100.00
49843;BME280;55559;48.898;9.184;2023-04-01T02:27:19;97043.88;;;8.75;100.00
49843;BME280;55559;48.898;9.184;2023-04-01T02:29:48;97039.56;;;8.74;100.00
49843;BME280;55559;48.898;9.184;2023-04-01T02:32:16;97043.22;;;8.73;100.00
49843;BME280;55559;48.898;9.184;2023-04-01T02:34:45;97043.22;;;8.73;100.00
49843;BME280;55559;48.898;9.184;2023-04-01T02:37:13;97042.84;;;8.68;100.00
49843;BME280;55559;48.898;9.184;2023-04-01T02:39:42;97044.38;;;8.70;100.00
49843;BME280;55559;48.898;9.184;2023-04-01T02:42:10;97048.66;;;8.71;100.00
49843;BME280;55559;48.898;9.184;2023-04-01T02:44:37;97046.38;;;8.77;100.00
49843;BME280;55559;48.898;9.184;2023-04-01T02:47:05;97045.84;;;8.73;100.00
49843;BME280;55559;48.898;9.184;2023-04-01T02:49:32;97046.53;;;8.75;100.00
49843;BME280;55559;48.898;9.184;2023-04-01T02:52:00;97041.91;;;8.77;100.00
49843;BME280;55559;48.898;9.184;2023-04-01T02:54:27;97054.97;;;8.70;100.00
49843;BME280;55559;48.898;9.184;2023-04-01T02:56:56;97055.31;;;8.75;100.00
49843;BME280;55559;48.898;9.184;2023-04-01T02:59:23;97061.44;;;8.76;100.00
49843;BME280;55559;48.898;9.184;2023-04-01T03:01:51;97060.63;;;8.75;100.00
49843;BME280;55559;48.898;9.184;2023-04-01T03:04:18;97049.16;;;8.75;100.00
49843;BME280;55559;48.898;9.184;2023-04-01T03:06:46;97048.81;;;8.70;100.00
49843;BME280;55559;48.898;9.184;2023-04-01T03:09:13;97050.75;;;8.60;100.00
49843;BME280;55559;48.898;9.184;2023-04-01T03:11:41;97064.81;;;8.52;100.00
49843;BME280;55559;48.898;9.184;2023-04-01T03:14:10;97053.06;;;8.54;100.00
49843;BME280;55559;48.898;9.184;2023-04-01T03:16:38;97059.22;;;8.55;100.00
49843;BME280;55559;48.898;9.184;2023-04-01T03:19:05;97060.03;;;8.55;100.00
49843;BME280;55559;48.898;9.184;2023-04-01T03:21:33;97050.72;;;8.51;100.00
49843;BME280;55559;48.898;9.184;2023-04-01T03:24:00;97051.56;;;8.52;100.00
49843;BME280;55559;48.898;9.184;2023-04-01T03:26:28;97053.34;;;8.43;100.00
49843;BME280;55559;48.898;9.184;2023-04-01T03:29:00;97050.28;;;8.38;100.00
49843;BME280;55559;48.898;9.184;2023-04-01T03:31:29;97061.66;;;8.48;100.00
49843;BME280;55559;48.898;9.184;2023-04-01T03:33:57;97047.56;;;8.48;100.00
49843;BME280;55559;48.898;9.184;2023-04-01T03:36:25;97050.38;;;8.46;100.00
49843;BME280;55559;48.898;9.184;2023-04-01T03:38:52;97049.84;;;8.43;100.00
49843;BME280;55559;48.898;9.184;2023-04-01T03:41:30;97047.13;;;8.34;100.00
49843;BME280;55559;48.898;9.184;2023-04-01T03:43:58;97045.28;;;8.27;100.00
49843;BME280;55559;48.898;9.184;2023-04-01T03:46:26;97043.09;;;8.22;100.00
49843;BME280;55559;48.898;9.184;2023-04-01T03:48:55;97040.91;;;8.17;100.00
49843;BME280;55559;48.898;9.184;2023-04-01T03:51:22;97041.56;;;8.11;100.00
49843;BME280;55559;48.898;9.184;2023-04-01T03:53:50;97040.56;;;8.12;100.00
49843;BME280;55559;48.898;9.184;2023-04-01T03:56:18;97045.69;;;8.14;100.00
49843;BME280;55559;48.898;9.184;2023-04-01T03:58:45;97040.91;;;8.17;100.00
49843;BME280;55559;48.898;9.184;2023-04-01T04:01:14;97043.72;;;8.16;100.00
49843;BME280;55559;48.898;9.184;2023-04-01T04:03:42;97038.22;;;8.09;100.00
49843;BME280;55559;48.898;9.184;2023-04-01T04:06:12;97036.22;;;8.03;100.00
49843;BME280;55559;48.898;9.184;2023-04-01T04:08:40;97028.41;;;8.01;100.00
49843;BME280;55559;48.898;9.184;2023-04-01T04:11:08;97024.47;;;8.06;100.00
49843;BME280;55559;48.898;9.184;2023-04-01T04:13:39;97020.03;;;8.06;100.00
49843;BME280;55559;48.898;9.184;2023-04-01T04:16:06;97025.97;;;8.08;100.00
49843;BME280;55559;48.898;9.184;2023-04-01T04:18:36;97028.16;;;8.13;100.00
49843;BME280;55559;48.898;9.184;2023-04-01T04:21:04;97022.69;;;8.14;100.00
49843;BME280;55559;48.898;9.184;2023-04-01T04:23:33;97028.16;;;8.13;100.00
49843;BME280;55559;48.898;9.184;2023-04-01T04:26:04;97024.88;;;8.19;100.00
49843;BME280;55559;48.898;9.184;2023-04-01T04:28:33;97023.59;;;8.23;100.00
49843;BME280;55559;48.898;9.184;2023-04-01T04:31:01;97021.75;;;8.24;100.00
49843;BME280;55559;48.898;9.184;2023-04-01T04:33:32;97023.59;;;8.23;100.00
49843;BME280;55559;48.898;9.184;2023-04-01T04:36:00;97025.06;;;8.26;100.00
49843;BME280;55559;48.898;9.184;2023-04-01T04:38:28;97031.75;;;8.30;100.00
49843;BME280;55559;48.898;9.184;2023-04-01T04:40:57;97024.78;;;8.29;100.00
49843;BME280;55559;48.898;9.184;2023-04-01T04:43:24;97020.44;;;8.28;100.00
49843;BME280;55559;48.898;9.184;2023-04-01T04:45:52;97023.13;;;8.36;100.00
49843;BME280;55559;48.898;9.184;2023-04-01T04:48:19;97012.34;;;8.29;100.00
49843;BME280;55559;48.898;9.184;2023-04-01T04:50:49;97016.78;;;8.20;100.00
49843;BME280;55559;48.898;9.184;2023-04-01T04:53:21;97015.28;;;8.18;100.00
49843;BME280;55559;48.898;9.184;2023-04-01T04:55:49;97028.16;;;8.13;100.00
49843;BME280;55559;48.898;9.184;2023-04-01T04:58:28;97025.69;;;8.11;100.00
49843;BME280;55559;48.898;9.184;2023-04-01T05:00:56;97018.41;;;8.13;100.00
49843;BME280;55559;48.898;9.184;2023-04-01T05:03:28;97024.66;;;8.12;100.00
49843;BME280;55559;48.898;9.184;2023-04-01T05:05:56;97021.00;;;8.05;100.00
49843;BME280;55559;48.898;9.184;2023-04-01T05:08:23;97017.00;;;8.01;100.00
49843;BME280;55559;48.898;9.184;2023-04-01T05:10:51;97014.81;;;7.96;100.00
49843;BME280;55559;48.898;9.184;2023-04-01T05:13:18;97009.22;;;7.99;100.00
49843;BME280;55559;48.898;9.184;2023-04-01T05:15:48;97012.38;;;8.03;100.00
49843;BME280;55559;48.898;9.184;2023-04-01T05:18:16;97013.38;;;8.02;100.00
49843;BME280;55559;48.898;9.184;2023-04-01T05:20:46;96998.31;;;8.02;100.00
49843;BME280;55559;48.898;9.184;2023-04-01T05:23:14;97020.03;;;8.06;100.00
49843;BME280;55559;48.898;9.184;2023-04-01T05:25:43;97019.69;;;8.09;100.00
49843;BME280;55559;48.898;9.184;2023-04-01T05:28:12;97013.56;;;8.09;100.00
49843;BME280;55559;48.898;9.184;2023-04-01T05:30:41;97016.41;;;8.15;100.00
49843;BME280;55559;48.898;9.184;2023-04-01T05:33:31;97020.09;;;8.23;100.00
49843;BME280;55559;48.898;9.184;2023-04-01T05:36:06;97016.66;;;8.30;100.00
49843;BME280;55559;48.898;9.184;2023-04-01T05:38:33;97010.91;;;8.35;100.00
49843;BME280;55559;48.898;9.184;2023-04-01T05:41:02;97004.13;;;8.41;100.00
49843;BME280;55559;48.898;9.184;2023-04-01T05:43:31;96998.75;;;8.50;100.00
49843;BME280;55559;48.898;9.184;2023-04-01T05:46:09;96988.97;;;8.51;100.00
49843;BME280;55559;48.898;9.184;2023-04-01T05:48:48;97000.25;;;8.61;100.00
49843;BME280;55559;48.898;9.184;2023-04-01T05:51:16;96985.56;;;8.67;100.00
49843;BME280;55559;48.898;9.184;2023-04-01T05:53:44;96987.75;;;8.80;100.00
49843;BME280;55559;48.898;9.184;2023-04-01T05:56:12;96982.75;;;8.77;100.00
49843;BME280;55559;48.898;9.184;2023-04-01T05:58:45;96980.94;;;8.85;100.00
49843;BME280;55559;48.898;9.184;2023-04-01T06:01:14;96990.09;;;8.91;100.00
49843;BME280;55559;48.898;9.184;2023-04-01T06:03:41;96995.25;;;9.01;100.00
49843;BME280;55559;48.898;9.184;2023-04-01T06:06:14;96989.28;;;9.07;100.00
49843;BME280;55559;48.898;9.184;2023-04-01T06:08:43;96989.28;;;9.15;100.00
49843;BME280;55559;48.898;9.184;2023-04-01T06:11:18;96993.44;;;9.34;100.00
49843;BME280;55559;48.898;9.184;2023-04-01T06:14:10;96989.63;;;9.20;100.00
49843;BME280;55559;48.898;9.184;2023-04-01T06:16:54;97000.59;;;9.34;100.00
49843;BME280;55559;48.898;9.184;2023-04-01T06:19:30;96987.50;;;9.40;100.00
49843;BME280;55559;48.898;9.184;2023-04-01T06:25:32;96996.13;;;9.50;100.00
49843;BME280;55559;48.898;9.184;2023-04-01T06:31:20;96984.03;;;9.56;100.00
49843;BME280;55559;48.898;9.184;2023-04-01T06:34:06;96992.31;;;9.61;100.00
49843;BME280;55559;48.898;9.184;2023-04-01T06:43:07;96997.78;;;9.68;100.00
49843;BME280;55559;48.898;9.184;2023-04-01T06:46:24;97001.25;;;9.77;100.00
49843;BME280;55559;48.898;9.184;2023-04-01T06:49:35;96996.28;;;9.82;100.00
49843;BME280;55559;48.898;9.184;2023-04-01T06:52:31;97006.41;;;9.78;100.00
49843;BME280;55559;48.898;9.184;2023-04-01T06:55:28;97007.72;;;9.74;100.00
49843;BME280;55559;48.898;9.184;2023-04-01T06:58:28;96997.25;;;9.73;100.00
49843;BME280;55559;48.898;9.184;2023-04-01T07:00:59;97004.75;;;9.77;100.00
49843;BME280;55559;48.898;9.184;2023-04-01T07:03:32;97007.22;;;9.79;100.00
49843;BME280;55559;48.898;9.184;2023-04-01T07:06:04;97013.19;;;9.97;100.00
49843;BME280;55559;48.898;9.184;2023-04-01T07:08:39;97003.72;;;9.95;100.00
49843;BME280;55559;48.898;9.184;2023-04-01T07:11:11;96990.59;;;10.01;100.00
49843;BME280;55559;48.898;9.184;2023-04-01T07:14:05;96999.72;;;9.99;100.00
49843;BME280;55559;48.898;9.184;2023-04-01T07:16:40;96992.91;;;9.96;100.00
49843;BME280;55559;48.898;9.184;2023-04-01T07:19:14;97002.22;;;10.00;100.00
49843;BME280;55559;48.898;9.184;2023-04-01T07:22:03;97008.53;;;9.99;100.00
49843;BME280;55559;48.898;9.184;2023-04-01T07:24:54;97012.84;;;9.92;100.00
49843;BME280;55559;48.898;9.184;2023-04-01T07:27:24;97005.72;;;9.93;100.00
49843;BME280;55559;48.898;9.184;2023-04-01T07:29:56;97012.50;;;10.03;100.00
49843;BME280;55559;48.898;9.184;2023-04-01T07:32:33;97008.03;;;9.87;100.00
49843;BME280;55559;48.898;9.184;2023-04-01T07:35:15;97010.19;;;9.92;100.00
49843;BME280;55559;48.898;9.184;2023-04-01T07:37:52;97021.66;;;9.84;100.00
49843;BME280;55559;48.898;9.184;2023-04-01T07:40:30;97021.16;;;9.89;100.00
49843;BME280;55559;48.898;9.184;2023-04-01T07:46:19;97028.13;;;9.98;100.00
49843;BME280;55559;48.898;9.184;2023-04-01T07:48:55;97022.78;;;10.06;100.00
49843;BME280;55559;48.898;9.184;2023-04-01T07:51:29;97023.78;;;10.05;100.00
49843;BME280;55559;48.898;9.184;2023-04-01T07:54:03;97029.91;;;10.22;100.00
49843;BME280;55559;48.898;9.184;2023-04-01T07:56:40;97023.06;;;10.28;100.00
49843;BME280;55559;48.898;9.184;2023-04-01T07:59:19;97026.38;;;10.30;100.00
49843;BME280;55559;48.898;9.184;2023-04-01T08:02:06;97029.75;;;10.32;100.00
49843;BME280;55559;48.898;9.184;2023-04-01T08:04:49;97029.06;;;10.22;100.00
49843;BME280;55559;48.898;9.184;2023-04-01T08:07:22;97019.75;;;10.26;100.00
49843;BME280;55559;48.898;9.184;2023-04-01T08:10:11;97024.53;;;10.47;100.00
49843;BME280;55559;48.898;9.184;2023-04-01T08:13:05;97034.13;;;10.65;100.00
49843;BME280;55559;48.898;9.184;2023-04-01T08:16:13;97021.22;;;10.45;100.00
49843;BME280;55559;48.898;9.184;2023-04-01T08:18:56;97024.56;;;10.31;100.00
49843;BME280;55559;48.898;9.184;2023-04-01T08:21:30;97018.69;;;10.60;100.00
49843;BME280;55559;48.898;9.184;2023-04-01T08:24:10;97034.94;;;10.65;100.00
49843;BME280;55559;48.898;9.184;2023-04-01T08:26:42;97030.25;;;10.75;100.00
49843;BME280;55559;48.898;9.184;2023-04-01T08:29:16;97039.31;;;10.50;100.00
49843;BME280;55559;48.898;9.184;2023-04-01T08:31:51;97038.34;;;10.42;100.00
49843;BME280;55559;48.898;9.184;2023-04-01T08:34:25;97037.78;;;10.55;100.00
49843;BME280;55559;48.898;9.184;2023-04-01T08:37:00;97048.25;;;10.57;100.00
49843;BME280;55559;48.898;9.184;2023-04-01T08:39:30;97052.63;;;10.41;100.00
49843;BME280;55559;48.898;9.184;2023-04-01T08:42:25;97034.09;;;10.09;100.00
49843;BME280;55559;48.898;9.184;2023-04-01T08:45:31;97041.41;;;9.98;100.00
49843;BME280;55559;48.898;9.184;2023-04-01T08:48:19;97037.25;;;10.04;100.00
49843;BME280;55559;48.898;9.184;2023-04-01T08:54:10;97044.72;;;10.00;100.00
49843;BME280;55559;48.898;9.184;2023-04-01T08:56:52;97040.72;;;9.88;100.00
49843;BME280;55559;48.898;9.184;2023-04-01T09:02:51;97044.22;;;9.80;100.00
49843;BME280;55559;48.898;9.184;2023-04-01T09:05:38;97041.06;;;9.85;100.00
49843;BME280;55559;48.898;9.184;2023-04-01T09:08:27;97044.72;;;9.84;100.00
49843;BME280;55559;48.898;9.184;2023-04-01T09:11:17;97041.19;;;10.08;100.00
49843;BME280;55559;48.898;9.184;2023-04-01T09:14:23;97040.69;;;10.21;100.00
49843;BME280;55559;48.898;9.184;2023-04-01T09:17:35;97041.66;;;10.28;100.00
49843;BME280;55559;48.898;9.184;2023-04-01T09:20:24;97043.81;;;10.49;100.00
49843;BME280;55559;48.898;9.184;2023-04-01T09:23:15;97047.41;;;10.65;100.00
49843;BME280;55559;48.898;9.184;2023-04-01T09:25:51;97041.22;;;10.72;100.00
49843;BME280;55559;48.898;9.184;2023-04-01T09:28:28;97045.28;;;11.00;100.00
49843;BME280;55559;48.898;9.184;2023-04-01T09:31:18;97029.41;;;11.06;100.00
49843;BME280;55559;48.898;9.184;2023-04-01T09:34:37;97050.34;;;10.78;100.00
49843;BME280;55559;48.898;9.184;2023-04-01T09:37:18;97054.34;;;10.74;100.00
49843;BME280;55559;48.898;9.184;2023-04-01T09:40:14;97050.44;;;10.53;100.00
49843;BME280;55559;48.898;9.184;2023-04-01T09:42:56;97051.78;;;10.49;100.00
49843;BME280;55559;48.898;9.184;2023-04-01T09:45:45;97054.59;;;10.48;100.00
49843;BME280;55559;48.898;9.184;2023-04-01T09:48:40;97060.63;;;10.33;100.00
49843;BME280;55559;48.898;9.184;2023-04-01T09:51:25;97059.28;;;10.46;100.00
49843;BME280;55559;48.898;9.184;2023-04-01T09:54:10;97066.97;;;10.72;100.00
49843;BME280;55559;48.898;9.184;2023-04-01T09:57:14;97071.53;;;10.55;100.00
49843;BME280;55559;48.898;9.184;2023-04-01T10:00:10;97069.50;;;10.65;100.00
49843;BME280;55559;48.898;9.184;2023-04-01T10:03:19;97065.56;;;10.53;100.00
49843;BME280;55559;48.898;9.184;2023-04-01T10:09:03;97067.31;;;10.69;100.00
49843;BME280;55559;48.898;9.184;2023-04-01T10:12:19;97067.03;;;10.55;100.00
49843;BME280;55559;48.898;9.184;2023-04-01T10:15:15;97063.56;;;10.47;100.00
49843;BME280;55559;48.898;9.184;2023-04-01T10:21:05;97068.50;;;10.66;100.00
49843;BME280;55559;48.898;9.184;2023-04-01T10:23:56;97072.13;;;10.73;100.00
49843;BME280;55559;48.898;9.184;2023-04-01T10:26:44;97067.81;;;10.72;100.00
49843;BME280;55559;48.898;9.184;2023-04-01T10:36:21;97071.19;;;10.58;100.00
49843;BME280;55559;48.898;9.184;2023-04-01T10:39:14;97063.91;;;10.43;100.00
49843;BME280;55559;48.898;9.184;2023-04-01T10:51:53;97071.84;;;10.52;100.00
49843;BME280;55559;48.898;9.184;2023-04-01T10:55:14;97077.69;;;10.47;100.00
49843;BME280;55559;48.898;9.184;2023-04-01T10:58:29;97076.53;;;10.50;100.00
49843;BME280;55559;48.898;9.184;2023-04-01T11:02:08;97075.16;;;10.62;100.00
49843;BME280;55559;48.898;9.184;2023-04-01T11:11:22;97078.41;;;10.80;100.00
49843;BME280;55559;48.898;9.184;2023-04-01T11:14:04;97069.44;;;10.82;100.00
49843;BME280;55559;48.898;9.184;2023-04-01T11:23:11;97065.25;;;10.87;100.00
49843;BME280;55559;48.898;9.184;2023-04-01T11:25:52;97069.84;;;11.02;100.00
49843;BME280;55559;48.898;9.184;2023-04-01T11:31:47;97076.31;;;11.07;100.00
49843;BME280;55559;48.898;9.184;2023-04-01T11:34:44;97074.38;;;11.24;100.00
49843;BME280;55559;48.898;9.184;2023-04-01T11:37:28;97073.06;;;11.28;100.00
49843;BME280;55559;48.898;9.184;2023-04-01T11:40:42;97074.34;;;11.32;100.00
49843;BME280;55559;48.898;9.184;2023-04-01T11:43:36;97078.28;;;11.13;100.00
49843;BME280;55559;48.898;9.184;2023-04-01T11:46:39;97081.38;;;11.25;100.00
49843;BME280;55559;48.898;9.184;2023-04-01T11:49:27;97081.97;;;11.35;100.00
49843;BME280;55559;48.898;9.184;2023-04-01T11:55:38;97089.91;;;11.44;100.00
49843;BME280;55559;48.898;9.184;2023-04-01T11:58:25;97094.53;;;11.50;100.00
49843;BME280;55559;48.898;9.184;2023-04-01T12:01:07;97085.88;;;11.48;100.00
49843;BME280;55559;48.898;9.184;2023-04-01T12:03:51;97105.75;;;11.37;100.00
49843;BME280;55559;48.898;9.184;2023-04-01T12:06:28;97109.13;;;11.31;100.00
49843;BME280;55559;48.898;9.184;2023-04-01T12:09:00;97101.47;;;11.28;100.00
49843;BME280;55559;48.898;9.184;2023-04-01T12:11:36;97101.03;;;11.47;100.00
49843;BME280;55559;48.898;9.184;2023-04-01T12:14:11;97108.44;;;11.60;100.00
49843;BME280;55559;48.898;9.184;2023-04-01T12:16:56;97095.53;;;11.72;100.00
49843;BME280;55559;48.898;9.184;2023-04-01T12:19:32;97114.34;;;11.47;100.00
49843;BME280;55559;48.898;9.184;2023-04-01T12:22:34;97106.53;;;11.46;100.00
49843;BME280;55559;48.898;9.184;2023-04-01T12:25:17;97109.97;;;11.54;100.00
49843;BME280;55559;48.898;9.184;2023-04-01T12:28:00;97106.75;;;11.67;100.00
49843;BME280;55559;48.898;9.184;2023-04-01T12:30:46;97113.41;;;11.86;100.00
49843;BME280;55559;48.898;9.184;2023-04-01T12:33:29;97113.25;;;11.88;100.00
49843;BME280;55559;48.898;9.184;2023-04-01T12:36:01;97102.34;;;11.75;100.00
49843;BME280;55559;48.898;9.184;2023-04-01T12:38:43;97120.22;;;11.66;100.00
49843;BME280;55559;48.898;9.184;2023-04-01T12:41:24;97111.94;;;11.61;100.00
49843;BME280;55559;48.898;9.184;2023-04-01T12:44:23;97108.97;;;11.79;100.00
49843;BME280;55559;48.898;9.184;2023-04-01T12:47:11;97112.59;;;11.63;100.00
49843;BME280;55559;48.898;9.184;2023-04-01T12:49:56;97119.94;;;11.61;100.00
49843;BME280;55559;48.898;9.184;2023-04-01T12:52:42;97118.13;;;11.53;100.00
49843;BME280;55559;48.898;9.184;2023-04-01T13:01:30;97119.88;;;11.38;100.00
49843;BME280;55559;48.898;9.184;2023-04-01T13:04:33;97126.00;;;11.46;100.00
49843;BME280;55559;48.898;9.184;2023-04-01T13:07:20;97134.88;;;11.39;100.00
49843;BME280;55559;48.898;9.184;2023-04-01T13:09:55;97133.53;;;11.34;100.00
49843;BME280;55559;48.898;9.184;2023-04-01T13:12:53;97153.19;;;11.33;100.00
49843;BME280;55559;48.898;9.184;2023-04-01T13:15:30;97147.78;;;11.10;100.00
49843;BME280;55559;48.898;9.184;2023-04-01T13:18:11;97137.94;;;10.71;100.00
49843;BME280;55559;48.898;9.184;2023-04-01T13:20:44;97158.72;;;10.68;100.00
49843;BME280;55559;48.898;9.184;2023-04-01T13:23:29;97150.94;;;10.33;100.00
49843;BME280;55559;48.898;9.184;2023-04-01T13:26:02;97142.16;;;10.49;100.00
49843;BME280;55559;48.898;9.184;2023-04-01T13:28:36;97151.25;;;10.71;100.00
49843;BME280;55559;48.898;9.184;2023-04-01T13:31:12;97142.47;;;10.54;100.00
49843;BME280;55559;48.898;9.184;2023-04-01T13:33:50;97141.81;;;10.52;100.00
49843;BME280;55559;48.898;9.184;2023-04-01T13:36:31;97152.94;;;10.56;100.00
49843;BME280;55559;48.898;9.184;2023-04-01T13:39:27;97148.75;;;10.70;100.00
49843;BME280;55559;48.898;9.184;2023-04-01T13:42:18;97153.88;;;10.79;100.00
49843;BME280;55559;48.898;9.184;2023-04-01T13:44:51;97161.31;;;10.92;100.00
49843;BME280;55559;48.898;9.184;2023-04-01T13:47:44;97153.00;;;10.87;100.00
49843;BME280;55559;48.898;9.184;2023-04-01T13:50:53;97163.69;;;10.71;100.00
49843;BME280;55559;48.898;9.184;2023-04-01T13:56:33;97174.47;;;10.77;100.00
49843;BME280;55559;48.898;9.184;2023-04-01T14:02:14;97174.03;;;10.41;100.00
49843;BME280;55559;48.898;9.184;2023-04-01T14:07:58;97179.84;;;10.45;100.00
49843;BME280;55559;48.898;9.184;2023-04-01T14:10:35;97171.19;;;10.59;100.00
49843;BME280;55559;48.898;9.184;2023-04-01T14:13:12;97173.47;;;10.78;100.00
49843;BME280;55559;48.898;9.184;2023-04-01T14:16:11;97186.97;;;10.60;100.00
49843;BME280;55559;48.898;9.184;2023-04-01T14:18:57;97179.50;;;10.64;100.00
49843;BME280;55559;48.898;9.184;2023-04-01T14:21:38;97177.81;;;10.71;100.00
49843;BME280;55559;48.898;9.184;2023-04-01T14:27:46;97176.75;;;10.97;100.00
49843;BME280;55559;48.898;9.184;2023-04-01T14:30:45;97187.97;;;10.68;100.00
49843;BME280;55559;48.898;9.184;2023-04-01T14:33:24;97187.44;;;10.72;100.00
49843;BME280;55559;48.898;9.184;2023-04-01T14:36:14;97180.94;;;11.00;100.00
49843;BME280;55559;48.898;9.184;2023-04-01T14:38:55;97195.41;;;10.72;100.00
49843;BME280;55559;48.898;9.184;2023-04-01T14:41:38;97184.47;;;10.67;100.00
49843;BME280;55559;48.898;9.184;2023-04-01T14:44:42;97194.44;;;10.65;100.00
49843;BME280;55559;48.898;9.184;2023-04-01T14:47:43;97191.63;;;10.67;100.00
49843;BME280;55559;48.898;9.184;2023-04-01T14:50:17;97193.63;;;10.73;100.00
49843;BME280;55559;48.898;9.184;2023-04-01T14:52:53;97203.56;;;10.71;100.00
49843;BME280;55559;48.898;9.184;2023-04-01T14:55:33;97195.25;;;10.82;100.00
49843;BME280;55559;48.898;9.184;2023-04-01T14:58:10;97192.88;;;10.95;100.00
49843;BME280;55559;48.898;9.184;2023-04-01T15:00:48;97201.84;;;10.94;100.00
49843;BME280;55559;48.898;9.184;2023-04-01T15:03:20;97201.03;;;10.94;100.00
49843;BME280;55559;48.898;9.184;2023-04-01T15:05:52;97199.66;;;11.06;100.00
49843;BME280;55559;48.898;9.184;2023-04-01T15:08:23;97199.66;;;11.14;100.00
49843;BME280;55559;48.898;9.184;2023-04-01T15:11:03;97200.16;;;11.18;100.00
49843;BME280;55559;48.898;9.184;2023-04-01T15:14:01;97193.66;;;11.21;100.00
49843;BME280;55559;48.898;9.184;2023-04-01T15:16:39;97204.00;;;10.99;100.00
49843;BME280;55559;48.898;9.184;2023-04-01T15:19:16;97201.47;;;11.14;100.00
49843;BME280;55559;48.898;9.184;2023-04-01T15:22:05;97204.34;;;11.04;100.00